Astoria, Illinois
Current Conditions -  °F | °C
As of 11:35 AM on Friday 24 Oct 2014 (Local Time) from KMQB Reporting Station
Moderate Fog Moderate Fog  
Wind Chill: 55°   Ceiling: 100
Heat Index: 55°   Visibility: 0.5mi
Dew Point: 55°   Wind: 8mph
Humidity: 100%   Direction: 160°SSE
Pressure: 30.11"   Gusts: NA
Location:  40.23°N, 90.36°W
Report Text: KMQB 241635Z AUTO 16007KT 1/2SM FG OVC001 13/13 A3011 RMK AO2 T01270127
Loading
Personal Weather Stations






























Interactive Weather Map
Tropical Storm Tracking
New forecast layout! Learn more

10-Day Weather Forecast

Advertisements
Track Severe Weather on mobile